sensor_id;sensor_type;location;lat;lon;timestamp;pressure;altitude;pressure_sealevel;temperature;humidity
74065;BME280;62421;51.412;5.432;2023-03-26T00:00:45;100636.16;;;7.01;100.00
74065;BME280;62421;51.412;5.432;2023-03-26T00:03:13;100628.69;;;6.92;100.00
74065;BME280;62421;51.412;5.432;2023-03-26T00:05:40;100638.03;;;6.85;100.00
74065;BME280;62421;51.412;5.432;2023-03-26T00:08:07;100634.66;;;6.81;100.00
74065;BME280;62421;51.412;5.432;2023-03-26T00:10:37;100632.97;;;6.80;100.00
74065;BME280;62421;51.412;5.432;2023-03-26T00:13:04;100631.34;;;6.78;100.00
74065;BME280;62421;51.412;5.432;2023-03-26T00:15:31;100630.63;;;6.74;100.00
74065;BME280;62421;51.412;5.432;2023-03-26T00:17:57;100631.06;;;6.66;100.00
74065;BME280;62421;51.412;5.432;2023-03-26T00:20:25;100627.88;;;6.60;100.00
74065;BME280;62421;51.412;5.432;2023-03-26T00:22:51;100622.03;;;6.53;100.00
74065;BME280;62421;51.412;5.432;2023-03-26T00:25:17;100621.53;;;6.46;100.00
74065;BME280;62421;51.412;5.432;2023-03-26T00:27:44;100621.88;;;6.40;100.00
74065;BME280;62421;51.412;5.432;2023-03-26T00:30:10;100624.81;;;6.35;100.00
74065;BME280;62421;51.412;5.432;2023-03-26T00:32:36;100617.91;;;6.31;100.00
74065;BME280;62421;51.412;5.432;2023-03-26T00:35:02;100614.56;;;6.28;100.00
74065;BME280;62421;51.412;5.432;2023-03-26T00:37:28;100613.78;;;6.26;100.00
74065;BME280;62421;51.412;5.432;2023-03-26T00:39:55;100611.28;;;6.23;100.00
74065;BME280;62421;51.412;5.432;2023-03-26T00:42:29;100603.56;;;6.18;100.00
74065;BME280;62421;51.412;5.432;2023-03-26T00:44:56;100609.03;;;6.15;100.00
74065;BME280;62421;51.412;5.432;2023-03-26T00:47:26;100601.03;;;6.15;100.00
74065;BME280;62421;51.412;5.432;2023-03-26T00:49:52;100598.22;;;6.18;100.00
74065;BME280;62421;51.412;5.432;2023-03-26T00:52:19;100598.16;;;6.20;100.00
74065;BME280;62421;51.412;5.432;2023-03-26T00:54:50;100590.22;;;6.18;100.00
74065;BME280;62421;51.412;5.432;2023-03-26T00:57:16;100590.56;;;6.12;100.00
74065;BME280;62421;51.412;5.432;2023-03-26T00:59:42;100588.09;;;6.09;100.00
74065;BME280;62421;51.412;5.432;2023-03-26T01:02:11;100582.03;;;6.05;100.00
74065;BME280;62421;51.412;5.432;2023-03-26T01:04:44;100585.63;;;6.04;100.00
74065;BME280;62421;51.412;5.432;2023-03-26T01:07:13;100571.31;;;6.07;100.00
74065;BME280;62421;51.412;5.432;2023-03-26T01:09:42;100575.53;;;6.11;100.00
74065;BME280;62421;51.412;5.432;2023-03-26T01:12:12;100567.41;;;6.12;100.00
74065;BME280;62421;51.412;5.432;2023-03-26T01:14:41;100562.09;;;6.12;100.00
74065;BME280;62421;51.412;5.432;2023-03-26T01:17:07;100555.31;;;6.07;100.00
74065;BME280;62421;51.412;5.432;2023-03-26T01:22:23;100551.56;;;5.93;100.00
74065;BME280;62421;51.412;5.432;2023-03-26T01:24:49;100537.81;;;5.85;100.00
74065;BME280;62421;51.412;5.432;2023-03-26T01:27:27;100538.16;;;5.79;100.00
74065;BME280;62421;51.412;5.432;2023-03-26T01:30:08;100539.41;;;5.72;100.00
74065;BME280;62421;51.412;5.432;2023-03-26T01:35:39;100527.63;;;5.60;100.00
74065;BME280;62421;51.412;5.432;2023-03-26T01:40:46;100525.47;;;5.51;100.00
74065;BME280;62421;51.412;5.432;2023-03-26T01:46:04;100528.47;;;5.45;100.00
74065;BME280;62421;51.412;5.432;2023-03-26T01:48:34;100526.66;;;5.45;100.00
74065;BME280;62421;51.412;5.432;2023-03-26T01:51:00;100520.56;;;5.43;100.00
74065;BME280;62421;51.412;5.432;2023-03-26T01:53:26;100509.97;;;5.42;100.00
74065;BME280;62421;51.412;5.432;2023-03-26T01:56:11;100511.78;;;5.41;100.00
74065;BME280;62421;51.412;5.432;2023-03-26T02:01:29;100507.16;;;5.45;100.00
74065;BME280;62421;51.412;5.432;2023-03-26T02:04:09;100494.63;;;5.47;100.00
74065;BME280;62421;51.412;5.432;2023-03-26T02:06:44;100491.72;;;5.51;100.00
74065;BME280;62421;51.412;5.432;2023-03-26T02:09:15;100483.53;;;5.54;100.00
74065;BME280;62421;51.412;5.432;2023-03-26T02:11:45;100499.25;;;5.59;100.00
74065;BME280;62421;51.412;5.432;2023-03-26T02:14:12;100481.41;;;5.61;100.00
74065;BME280;62421;51.412;5.432;2023-03-26T02:16:37;100478.66;;;5.63;100.00
74065;BME280;62421;51.412;5.432;2023-03-26T02:19:03;100469.81;;;5.62;100.00
74065;BME280;62421;51.412;5.432;2023-03-26T02:21:29;100464.47;;;5.62;100.00
74065;BME280;62421;51.412;5.432;2023-03-26T02:23:58;100462.59;;;5.64;100.00
74065;BME280;62421;51.412;5.432;2023-03-26T02:26:29;100466.81;;;5.68;100.00
74065;BME280;62421;51.412;5.432;2023-03-26T02:28:56;100463.03;;;5.72;100.00
74065;BME280;62421;51.412;5.432;2023-03-26T02:31:22;100458.38;;;5.76;100.00
74065;BME280;62421;51.412;5.432;2023-03-26T02:33:51;100460.97;;;5.78;100.00
74065;BME280;62421;51.412;5.432;2023-03-26T02:36:17;100446.53;;;5.82;100.00
74065;BME280;62421;51.412;5.432;2023-03-26T02:38:48;100456.06;;;5.86;100.00
74065;BME280;62421;51.412;5.432;2023-03-26T02:41:14;100450.66;;;5.87;100.00
74065;BME280;62421;51.412;5.432;2023-03-26T02:43:39;100448.56;;;5.92;100.00
74065;BME280;62421;51.412;5.432;2023-03-26T02:46:04;100438.72;;;5.94;100.00
74065;BME280;62421;51.412;5.432;2023-03-26T02:48:30;100432.34;;;5.97;100.00
74065;BME280;62421;51.412;5.432;2023-03-26T02:50:55;100432.28;;;5.99;100.00
74065;BME280;62421;51.412;5.432;2023-03-26T02:53:21;100426.88;;;6.00;100.00
74065;BME280;62421;51.412;5.432;2023-03-26T02:55:48;100417.81;;;6.03;100.00
74065;BME280;62421;51.412;5.432;2023-03-26T02:58:14;100414.13;;;6.05;100.00
74065;BME280;62421;51.412;5.432;2023-03-26T03:00:45;100414.81;;;6.09;100.00
74065;BME280;62421;51.412;5.432;2023-03-26T03:03:11;100409.28;;;6.12;100.00
74065;BME280;62421;51.412;5.432;2023-03-26T03:05:37;100409.19;;;6.13;100.00
74065;BME280;62421;51.412;5.432;2023-03-26T03:08:03;100390.44;;;6.15;100.00
74065;BME280;62421;51.412;5.432;2023-03-26T03:10:30;100392.94;;;6.18;100.00
74065;BME280;62421;51.412;5.432;2023-03-26T03:12:57;100393.63;;;6.22;100.00
74065;BME280;62421;51.412;5.432;2023-03-26T03:15:23;100379.25;;;6.24;100.00
74065;BME280;62421;51.412;5.432;2023-03-26T03:17:48;100377.34;;;6.26;100.00
74065;BME280;62421;51.412;5.432;2023-03-26T03:20:15;100385.22;;;6.28;100.00
74065;BME280;62421;51.412;5.432;2023-03-26T03:22:41;100370.13;;;6.28;100.00
74065;BME280;62421;51.412;5.432;2023-03-26T03:25:07;100374.41;;;6.31;100.00
74065;BME280;62421;51.412;5.432;2023-03-26T03:27:39;100369.91;;;6.31;100.00
74065;BME280;62421;51.412;5.432;2023-03-26T03:30:06;100372.50;;;6.33;100.00
74065;BME280;62421;51.412;5.432;2023-03-26T03:32:31;100369.72;;;6.34;100.00
74065;BME280;62421;51.412;5.432;2023-03-26T03:34:57;100365.16;;;6.36;100.00
74065;BME280;62421;51.412;5.432;2023-03-26T03:37:22;100354.41;;;6.38;100.00
74065;BME280;62421;51.412;5.432;2023-03-26T03:39:48;100354.31;;;6.40;100.00
74065;BME280;62421;51.412;5.432;2023-03-26T03:42:14;100355.94;;;6.42;100.00
74065;BME280;62421;51.412;5.432;2023-03-26T03:44:39;100354.88;;;6.45;100.00
74065;BME280;62421;51.412;5.432;2023-03-26T03:47:05;100346.81;;;6.46;100.00
74065;BME280;62421;51.412;5.432;2023-03-26T03:49:31;100347.66;;;6.47;100.00
74065;BME280;62421;51.412;5.432;2023-03-26T03:51:56;100349.47;;;6.46;100.00
74065;BME280;62421;51.412;5.432;2023-03-26T03:54:22;100338.78;;;6.46;100.00
74065;BME280;62421;51.412;5.432;2023-03-26T03:56:48;100334.41;;;6.45;100.00
74065;BME280;62421;51.412;5.432;2023-03-26T03:59:14;100337.94;;;6.46;100.00
74065;BME280;62421;51.412;5.432;2023-03-26T04:01:40;100319.38;;;6.44;100.00
74065;BME280;62421;51.412;5.432;2023-03-26T04:04:08;100316.69;;;6.44;100.00
74065;BME280;62421;51.412;5.432;2023-03-26T04:06:33;100311.44;;;6.43;100.00
74065;BME280;62421;51.412;5.432;2023-03-26T04:08:58;100312.31;;;6.43;100.00
74065;BME280;62421;51.412;5.432;2023-03-26T04:11:24;100302.50;;;6.44;100.00
74065;BME280;62421;51.412;5.432;2023-03-26T04:13:49;100307.84;;;6.44;100.00
74065;BME280;62421;51.412;5.432;2023-03-26T04:16:15;100303.56;;;6.41;100.00
74065;BME280;62421;51.412;5.432;2023-03-26T04:18:42;100299.16;;;6.40;100.00
74065;BME280;62421;51.412;5.432;2023-03-26T04:21:09;100286.78;;;6.39;100.00
74065;BME280;62421;51.412;5.432;2023-03-26T04:23:37;100285.06;;;6.38;100.00
74065;BME280;62421;51.412;5.432;2023-03-26T04:26:05;100277.06;;;6.38;100.00
74065;BME280;62421;51.412;5.432;2023-03-26T04:28:47;100273.63;;;6.36;100.00
74065;BME280;62421;51.412;5.432;2023-03-26T04:31:16;100272.78;;;6.35;100.00
74065;BME280;62421;51.412;5.432;2023-03-26T04:33:44;100265.72;;;6.34;100.00
74065;BME280;62421;51.412;5.432;2023-03-26T04:36:13;100257.84;;;6.33;100.00
74065;BME280;62421;51.412;5.432;2023-03-26T04:38:45;100263.34;;;6.30;100.00
74065;BME280;62421;51.412;5.432;2023-03-26T04:41:14;100257.44;;;6.25;100.00
74065;BME280;62421;51.412;5.432;2023-03-26T04:43:40;100247.06;;;6.20;100.00
74065;BME280;62421;51.412;5.432;2023-03-26T04:46:12;100241.13;;;6.15;100.00
74065;BME280;62421;51.412;5.432;2023-03-26T04:48:37;100238.75;;;6.10;100.00
74065;BME280;62421;51.412;5.432;2023-03-26T04:51:03;100233.63;;;6.07;100.00
74065;BME280;62421;51.412;5.432;2023-03-26T04:53:31;100223.13;;;6.04;100.00
74065;BME280;62421;51.412;5.432;2023-03-26T04:56:08;100222.50;;;6.01;100.00
74065;BME280;62421;51.412;5.432;2023-03-26T04:58:37;100213.72;;;5.99;100.00
74065;BME280;62421;51.412;5.432;2023-03-26T05:01:04;100222.66;;;5.98;100.00
74065;BME280;62421;51.412;5.432;2023-03-26T05:03:29;100214.56;;;5.99;100.00
74065;BME280;62421;51.412;5.432;2023-03-26T05:05:57;100210.88;;;6.02;100.00
74065;BME280;62421;51.412;5.432;2023-03-26T05:08:22;100210.56;;;6.06;100.00
74065;BME280;62421;51.412;5.432;2023-03-26T05:10:48;100214.78;;;6.10;100.00
74065;BME280;62421;51.412;5.432;2023-03-26T05:13:13;100211.94;;;6.13;100.00
74065;BME280;62421;51.412;5.432;2023-03-26T05:15:38;100208.13;;;6.18;100.00
74065;BME280;62421;51.412;5.432;2023-03-26T05:18:04;100205.34;;;6.19;100.00
74065;BME280;62421;51.412;5.432;2023-03-26T05:20:29;100201.53;;;6.23;100.00
74065;BME280;62421;51.412;5.432;2023-03-26T05:22:55;100197.81;;;6.26;100.00
74065;BME280;62421;51.412;5.432;2023-03-26T05:25:21;100196.88;;;6.27;100.00
74065;BME280;62421;51.412;5.432;2023-03-26T05:27:47;100195.75;;;6.31;100.00
74065;BME280;62421;51.412;5.432;2023-03-26T05:30:15;100188.69;;;6.30;100.00
74065;BME280;62421;51.412;5.432;2023-03-26T05:32:41;100179.75;;;6.31;100.00
74065;BME280;62421;51.412;5.432;2023-03-26T05:35:07;100174.41;;;6.31;100.00
74065;BME280;62421;51.412;5.432;2023-03-26T05:37:32;100170.00;;;6.30;100.00
74065;BME280;62421;51.412;5.432;2023-03-26T05:39:58;100157.56;;;6.30;100.00
74065;BME280;62421;51.412;5.432;2023-03-26T05:42:24;100165.56;;;6.30;100.00
74065;BME280;62421;51.412;5.432;2023-03-26T05:44:50;100146.91;;;6.30;100.00
74065;BME280;62421;51.412;5.432;2023-03-26T05:47:15;100149.56;;;6.30;100.00
74065;BME280;62421;51.412;5.432;2023-03-26T05:49:40;100145.94;;;6.31;100.00
74065;BME280;62421;51.412;5.432;2023-03-26T05:52:06;100147.75;;;6.31;100.00
74065;BME280;62421;51.412;5.432;2023-03-26T05:54:31;100135.25;;;6.31;100.00
74065;BME280;62421;51.412;5.432;2023-03-26T05:56:57;100131.84;;;6.29;100.00
74065;BME280;62421;51.412;5.432;2023-03-26T05:59:23;100135.25;;;6.31;100.00
74065;BME280;62421;51.412;5.432;2023-03-26T06:01:49;100128.13;;;6.32;100.00
74065;BME280;62421;51.412;5.432;2023-03-26T06:04:16;100117.56;;;6.30;100.00
74065;BME280;62421;51.412;5.432;2023-03-26T06:06:42;100117.66;;;6.29;100.00
74065;BME280;62421;51.412;5.432;2023-03-26T06:09:09;100115.94;;;6.28;100.00
74065;BME280;62421;51.412;5.432;2023-03-26T06:11:37;100114.13;;;6.28;100.00
74065;BME280;62421;51.412;5.432;2023-03-26T06:14:04;100119.34;;;6.30;100.00
74065;BME280;62421;51.412;5.432;2023-03-26T06:16:29;100105.16;;;6.29;100.00
74065;BME280;62421;51.412;5.432;2023-03-26T06:18:55;100110.50;;;6.29;100.00
74065;BME280;62421;51.412;5.432;2023-03-26T06:21:21;100106.91;;;6.30;100.00
74065;BME280;62421;51.412;5.432;2023-03-26T06:23:46;100107.00;;;6.29;100.00
74065;BME280;62421;51.412;5.432;2023-03-26T06:26:13;100107.75;;;6.31;100.00
74065;BME280;62421;51.412;5.432;2023-03-26T06:28:39;100114.03;;;6.30;100.00
74065;BME280;62421;51.412;5.432;2023-03-26T06:31:04;100112.22;;;6.30;100.00
74065;BME280;62421;51.412;5.432;2023-03-26T06:33:30;100108.59;;;6.31;100.00
74065;BME280;62421;51.412;5.432;2023-03-26T06:35:55;100108.59;;;6.31;100.00
74065;BME280;62421;51.412;5.432;2023-03-26T06:38:21;100114.78;;;6.32;100.00
74065;BME280;62421;51.412;5.432;2023-03-26T06:40:47;100121.72;;;6.34;100.00
74065;BME280;62421;51.412;5.432;2023-03-26T06:43:12;100117.16;;;6.36;100.00
74065;BME280;62421;51.412;5.432;2023-03-26T06:45:38;100117.16;;;6.36;100.00
74065;BME280;62421;51.412;5.432;2023-03-26T06:48:04;100111.94;;;6.35;100.00
74065;BME280;62421;51.412;5.432;2023-03-26T06:50:29;100103.81;;;6.36;100.00
74065;BME280;62421;51.412;5.432;2023-03-26T06:52:57;100101.16;;;6.36;100.00
74065;BME280;62421;51.412;5.432;2023-03-26T06:55:22;100106.31;;;6.40;100.00
74065;BME280;62421;51.412;5.432;2023-03-26T06:57:49;100107.16;;;6.40;100.00
74065;BME280;62421;51.412;5.432;2023-03-26T07:00:15;100100.00;;;6.41;100.00
74065;BME280;62421;51.412;5.432;2023-03-26T07:02:41;100099.91;;;6.42;100.00
74065;BME280;62421;51.412;5.432;2023-03-26T07:05:06;100098.00;;;6.44;100.00
74065;BME280;62421;51.412;5.432;2023-03-26T07:07:32;100100.56;;;6.46;100.00
74065;BME280;62421;51.412;5.432;2023-03-26T07:09:58;100097.16;;;6.44;100.00
74065;BME280;62421;51.412;5.432;2023-03-26T07:12:24;100096.09;;;6.46;100.00
74065;BME280;62421;51.412;5.432;2023-03-26T07:14:49;100096.00;;;6.48;100.00
74065;BME280;62421;51.412;5.432;2023-03-26T07:17:15;100081.59;;;6.50;100.00
74065;BME280;62421;51.412;5.432;2023-03-26T07:19:40;100081.50;;;6.52;100.00
74065;BME280;62421;51.412;5.432;2023-03-26T07:22:06;100083.13;;;6.54;100.00
74065;BME280;62421;51.412;5.432;2023-03-26T07:24:32;100088.34;;;6.56;100.00
74065;BME280;62421;51.412;5.432;2023-03-26T07:27:11;100081.22;;;6.56;100.00
74065;BME280;62421;51.412;5.432;2023-03-26T07:29:48;100075.88;;;6.56;100.00
74065;BME280;62421;51.412;5.432;2023-03-26T07:35:04;100077.38;;;6.61;100.00
74065;BME280;62421;51.412;5.432;2023-03-26T07:47:49;100064.59;;;6.66;100.00
74065;BME280;62421;51.412;5.432;2023-03-26T07:50:20;100060.00;;;6.68;100.00
74065;BME280;62421;51.412;5.432;2023-03-26T07:52:46;100055.41;;;6.70;100.00
74065;BME280;62421;51.412;5.432;2023-03-26T07:55:14;100058.75;;;6.73;100.00
74065;BME280;62421;51.412;5.432;2023-03-26T08:00:44;100055.41;;;6.70;100.00
74065;BME280;62421;51.412;5.432;2023-03-26T08:14:05;100050.09;;;6.70;100.00
74065;BME280;62421;51.412;5.432;2023-03-26T08:19:44;100037.28;;;6.75;100.00
74065;BME280;62421;51.412;5.432;2023-03-26T08:22:17;100037.59;;;6.70;100.00
74065;BME280;62421;51.412;5.432;2023-03-26T08:30:36;100031.75;;;6.78;100.00
74065;BME280;62421;51.412;5.432;2023-03-26T08:35:37;100031.78;;;6.91;100.00
74065;BME280;62421;51.412;5.432;2023-03-26T08:38:08;100031.56;;;6.94;100.00
74065;BME280;62421;51.412;5.432;2023-03-26T08:46:10;100029.97;;;7.04;100.00
74065;BME280;62421;51.412;5.432;2023-03-26T09:02:52;100033.53;;;7.17;100.00
74065;BME280;62421;51.412;5.432;2023-03-26T09:06:05;100030.34;;;7.25;100.00
74065;BME280;62421;51.412;5.432;2023-03-26T09:13:51;100030.53;;;7.35;100.00
74065;BME280;62421;51.412;5.432;2023-03-26T09:22:16;100035.78;;;7.49;100.00
74065;BME280;62421;51.412;5.432;2023-03-26T09:27:37;100019.94;;;7.59;100.00
74065;BME280;62421;51.412;5.432;2023-03-26T09:41:03;100033.31;;;7.33;100.00
74065;BME280;62421;51.412;5.432;2023-03-26T09:49:35;100029.59;;;7.23;100.00
74065;BME280;62421;51.412;5.432;2023-03-26T09:52:46;100027.66;;;7.25;100.00
74065;BME280;62421;51.412;5.432;2023-03-26T10:09:44;100029.34;;;7.52;100.00
74065;BME280;62421;51.412;5.432;2023-03-26T10:13:39;100036.94;;;7.58;100.00
74065;BME280;62421;51.412;5.432;2023-03-26T10:18:32;100038.09;;;7.67;100.00
74065;BME280;62421;51.412;5.432;2023-03-26T10:30:06;100050.06;;;7.61;100.00
74065;BME280;62421;51.412;5.432;2023-03-26T10:38:26;100056.56;;;7.83;100.00
74065;BME280;62421;51.412;5.432;2023-03-26T10:41:02;100045.88;;;7.83;100.00
74065;BME280;62421;51.412;5.432;2023-03-26T10:53:53;100053.78;;;7.07;100.00
74065;BME280;62421;51.412;5.432;2023-03-26T10:56:38;100050.69;;;7.01;100.00
74065;BME280;62421;51.412;5.432;2023-03-26T10:59:07;100051.66;;;7.00;100.00
74065;BME280;62421;51.412;5.432;2023-03-26T11:07:09;100048.44;;;6.94;100.00
74065;BME280;62421;51.412;5.432;2023-03-26T11:15:35;100049.09;;;6.98;100.00
74065;BME280;62421;51.412;5.432;2023-03-26T11:18:10;100056.66;;;6.91;100.00
74065;BME280;62421;51.412;5.432;2023-03-26T11:20:45;100054.84;;;6.92;100.00
74065;BME280;62421;51.412;5.432;2023-03-26T11:31:36;100063.72;;;7.05;100.00
74065;BME280;62421;51.412;5.432;2023-03-26T11:34:10;100065.84;;;7.00;100.00
74065;BME280;62421;51.412;5.432;2023-03-26T11:36:41;100066.81;;;6.99;100.00
74065;BME280;62421;51.412;5.432;2023-03-26T11:39:14;100063.44;;;7.10;100.00
74065;BME280;62421;51.412;5.432;2023-03-26T11:41:42;100069.81;;;7.07;100.00
74065;BME280;62421;51.412;5.432;2023-03-26T11:44:18;100072.69;;;7.04;100.00
74065;BME280;62421;51.412;5.432;2023-03-26T11:46:47;100072.69;;;7.04;100.00
74065;BME280;62421;51.412;5.432;2023-03-26T11:49:17;100075.91;;;7.09;100.00
74065;BME280;62421;51.412;5.432;2023-03-26T11:51:45;100081.16;;;7.24;100.00
74065;BME280;62421;51.412;5.432;2023-03-26T11:54:12;100082.03;;;7.37;100.00
74065;BME280;62421;51.412;5.432;2023-03-26T11:57:05;100081.38;;;7.46;100.00
74065;BME280;62421;51.412;5.432;2023-03-26T11:59:37;100076.47;;;7.66;100.00
74065;BME280;62421;51.412;5.432;2023-03-26T12:04:37;100078.09;;;7.68;100.00
74065;BME280;62421;51.412;5.432;2023-03-26T12:12:29;100082.44;;;7.95;100.00
74065;BME280;62421;51.412;5.432;2023-03-26T12:14:56;100087.47;;;7.87;100.00
74065;BME280;62421;51.412;5.432;2023-03-26T12:17:31;100089.81;;;7.66;100.00
74065;BME280;62421;51.412;5.432;2023-03-26T12:19:57;100090.06;;;7.50;100.00
74065;BME280;62421;51.412;5.432;2023-03-26T12:22:33;100085.13;;;7.44;100.00
74065;BME280;62421;51.412;5.432;2023-03-26T12:25:22;100090.16;;;7.48;100.00
74065;BME280;62421;51.412;5.432;2023-03-26T12:30:38;100093.56;;;7.50;100.00
74065;BME280;62421;51.412;5.432;2023-03-26T12:33:23;100098.72;;;7.66;100.00
74065;BME280;62421;51.412;5.432;2023-03-26T12:35:53;100093.38;;;7.66;100.00
74065;BME280;62421;51.412;5.432;2023-03-26T12:38:31;100099.66;;;7.65;100.00
74065;BME280;62421;51.412;5.432;2023-03-26T12:41:12;100092.22;;;7.57;100.00
74065;BME280;62421;51.412;5.432;2023-03-26T12:43:47;100103.94;;;7.68;100.00
74065;BME280;62421;51.412;5.432;2023-03-26T12:48:45;100103.50;;;7.74;100.00
74065;BME280;62421;51.412;5.432;2023-03-26T13:02:49;100108.97;;;7.47;100.00
74065;BME280;62421;51.412;5.432;2023-03-26T13:18:56;100116.88;;;7.61;100.00
74065;BME280;62421;51.412;5.432;2023-03-26T13:24:20;100129.47;;;7.46;100.00
74065;BME280;62421;51.412;5.432;2023-03-26T13:29:24;100134.28;;;7.54;100.00
74065;BME280;62421;51.412;5.432;2023-03-26T13:37:14;100131.97;;;7.62;100.00
74065;BME280;62421;51.412;5.432;2023-03-26T13:42:36;100138.91;;;7.77;100.00
74065;BME280;62421;51.412;5.432;2023-03-26T13:47:42;100137.94;;;7.91;100.00
74065;BME280;62421;51.412;5.432;2023-03-26T13:53:08;100147.25;;;7.86;100.00
74065;BME280;62421;51.412;5.432;2023-03-26T13:55:40;100152.94;;;7.94;100.00
74065;BME280;62421;51.412;5.432;2023-03-26T14:01:06;100155.47;;;7.95;100.00
74065;BME280;62421;51.412;5.432;2023-03-26T14:09:21;100158.78;;;7.86;100.00
74065;BME280;62421;51.412;5.432;2023-03-26T14:14:54;100177.38;;;7.49;100.00
74065;BME280;62421;51.412;5.432;2023-03-26T14:25:45;100188.81;;;7.24;100.00
74065;BME280;62421;51.412;5.432;2023-03-26T14:34:01;100209.69;;;7.05;100.00
74065;BME280;62421;51.412;5.432;2023-03-26T14:42:17;100218.28;;;7.10;100.00
74065;BME280;62421;51.412;5.432;2023-03-26T14:47:25;100229.84;;;6.96;100.00
74065;BME280;62421;51.412;5.432;2023-03-26T14:50:22;100231.84;;;6.92;100.00
74065;BME280;62421;51.412;5.432;2023-03-26T14:52:53;100231.38;;;6.86;100.00
74065;BME280;62421;51.412;5.432;2023-03-26T15:04:04;100259.03;;;6.99;100.00
74065;BME280;62421;51.412;5.432;2023-03-26T15:10:12;100271.53;;;6.84;100.00
74065;BME280;62421;51.412;5.432;2023-03-26T15:13:02;100279.47;;;6.71;100.00
74065;BME280;62421;51.412;5.432;2023-03-26T15:21:50;100300.13;;;6.53;100.00
74065;BME280;62421;51.412;5.432;2023-03-26T15:35:56;100324.03;;;6.26;100.00
74065;BME280;62421;51.412;5.432;2023-03-26T15:51:51;100355.06;;;6.27;100.00
74065;BME280;62421;51.412;5.432;2023-03-26T16:02:15;100368.84;;;6.20;100.00
74065;BME280;62421;51.412;5.432;2023-03-26T16:04:52;100372.28;;;6.22;100.00
74065;BME280;62421;51.412;5.432;2023-03-26T16:15:33;100383.59;;;6.25;100.00
74065;BME280;62421;51.412;5.432;2023-03-26T16:23:26;100404.91;;;6.41;100.00
74065;BME280;62421;51.412;5.432;2023-03-26T16:26:26;100405.16;;;6.36;100.00
74065;BME280;62421;51.412;5.432;2023-03-26T16:37:14;100425.69;;;6.50;100.00
74065;BME280;62421;51.412;5.432;2023-03-26T16:39:50;100440.50;;;6.40;100.00
74065;BME280;62421;51.412;5.432;2023-03-26T16:42:47;100439.75;;;6.38;100.00
74065;BME280;62421;51.412;5.432;2023-03-26T16:50:54;100456.44;;;6.26;100.00
74065;BME280;62421;51.412;5.432;2023-03-26T16:56:32;100483.56;;;6.18;100.00
74065;BME280;62421;51.412;5.432;2023-03-26T17:04:38;100508.00;;;6.10;100.00
74065;BME280;62421;51.412;5.432;2023-03-26T17:07:27;100519.97;;;6.03;100.00
74065;BME280;62421;51.412;5.432;2023-03-26T17:10:14;100525.28;;;6.03;100.00
74065;BME280;62421;51.412;5.432;2023-03-26T17:15:44;100540.25;;;6.22;100.00
74065;BME280;62421;51.412;5.432;2023-03-26T17:35:42;100586.56;;;5.87;100.00
74065;BME280;62421;51.412;5.432;2023-03-26T17:43:09;100602.00;;;5.81;100.00
74065;BME280;62421;51.412;5.432;2023-03-26T17:45:37;100614.31;;;5.83;100.00
74065;BME280;62421;51.412;5.432;2023-03-26T17:48:30;100619.66;;;5.83;100.00
74065;BME280;62421;51.412;5.432;2023-03-26T17:51:30;100621.28;;;5.86;97.15
74065;BME280;62421;51.412;5.432;2023-03-26T17:54:01;100628.75;;;5.79;98.05
74065;BME280;62421;51.412;5.432;2023-03-26T17:56:33;100625.56;;;5.72;97.29
74065;BME280;62421;51.412;5.432;2023-03-26T17:58:59;100643.50;;;5.69;97.94
74065;BME280;62421;51.412;5.432;2023-03-26T18:01:38;100639.47;;;5.78;93.63
74065;BME280;62421;51.412;5.432;2023-03-26T18:04:11;100653.13;;;5.71;95.23
74065;BME280;62421;51.412;5.432;2023-03-26T18:09:41;100662.69;;;5.58;96.05
74065;BME280;62421;51.412;5.432;2023-03-26T18:12:29;100676.97;;;5.57;96.22
74065;BME280;62421;51.412;5.432;2023-03-26T18:15:16;100672.50;;;5.58;95.23
74065;BME280;62421;51.412;5.432;2023-03-26T18:17:46;100686.19;;;5.50;94.70
74065;BME280;62421;51.412;5.432;2023-03-26T18:20:24;100693.50;;;5.46;94.81
74065;BME280;62421;51.412;5.432;2023-03-26T18:22:51;100703.44;;;5.43;94.99
74065;BME280;62421;51.412;5.432;2023-03-26T18:25:24;100703.59;;;5.40;96.27
74065;BME280;62421;51.412;5.432;2023-03-26T18:27:51;100708.06;;;5.39;96.01
74065;BME280;62421;51.412;5.432;2023-03-26T18:30:19;100722.94;;;5.43;95.57
74065;BME280;62421;51.412;5.432;2023-03-26T18:32:53;100720.22;;;5.45;93.48
74065;BME280;62421;51.412;5.432;2023-03-26T18:35:24;100737.22;;;5.42;91.56
74065;BME280;62421;51.412;5.432;2023-03-26T18:37:54;100738.19;;;5.40;93.32
74065;BME280;62421;51.412;5.432;2023-03-26T18:40:25;100750.91;;;5.34;91.83
74065;BME280;62421;51.412;5.432;2023-03-26T18:42:54;100750.97;;;5.33;92.13
74065;BME280;62421;51.412;5.432;2023-03-26T18:45:37;100753.72;;;5.31;93.54
74065;BME280;62421;51.412;5.432;2023-03-26T18:48:17;100761.78;;;5.30;92.02
74065;BME280;62421;51.412;5.432;2023-03-26T18:50:46;100763.72;;;5.26;90.82
74065;BME280;62421;51.412;5.432;2023-03-26T18:53:37;100772.56;;;5.27;91.20
74065;BME280;62421;51.412;5.432;2023-03-26T18:56:37;100775.56;;;5.21;92.05
74065;BME280;62421;51.412;5.432;2023-03-26T18:59:16;100789.22;;;5.13;88.48
74065;BME280;62421;51.412;5.432;2023-03-26T19:01:46;100790.88;;;5.16;88.16
74065;BME280;62421;51.412;5.432;2023-03-26T19:04:13;100798.22;;;5.10;90.18
74065;BME280;62421;51.412;5.432;2023-03-26T19:06:41;100805.47;;;5.07;87.09
74065;BME280;62421;51.412;5.432;2023-03-26T19:09:08;100820.72;;;5.03;87.02
74065;BME280;62421;51.412;5.432;2023-03-26T19:11:39;100808.31;;;5.04;84.79
74065;BME280;62421;51.412;5.432;2023-03-26T19:14:16;100823.03;;;5.11;84.62
74065;BME280;62421;51.412;5.432;2023-03-26T19:16:49;100820.94;;;4.99;84.23
74065;BME280;62421;51.412;5.432;2023-03-26T19:19:21;100842.63;;;4.91;81.18